createdAt,value
2018-06-03T00:00:04.329Z,1026.58357035
2018-06-03T00:00:16.874Z,1026.58357035
2018-06-03T00:00:29.317Z,1026.58357035
2018-06-03T00:00:41.769Z,1026.58357035
2018-06-03T00:00:54.183Z,1026.58357035
2018-06-03T00:01:06.610Z,1026.54970646
2018-06-03T00:01:19.193Z,1026.54970646
2018-06-03T00:01:31.620Z,1026.54970646
2018-06-03T00:01:44.045Z,1026.54970646
2018-06-03T00:01:56.489Z,1026.54970646
2018-06-03T00:02:08.909Z,1026.51584258
2018-06-03T00:02:21.335Z,1026.51584258
2018-06-03T00:02:33.767Z,1026.51584258
2018-06-03T00:02:46.344Z,1026.51584258
2018-06-03T00:02:58.768Z,1026.51584258
2018-06-03T00:03:11.209Z,1026.51584258
2018-06-03T00:03:23.616Z,1026.51584258
2018-06-03T00:03:36.044Z,1026.51584258
2018-06-03T00:03:48.466Z,1026.51584258
2018-06-03T00:04:00.993Z,1026.4819787
2018-06-03T00:04:13.419Z,1026.4819787
2018-06-03T00:04:25.841Z,1026.4819787
2018-06-03T00:04:38.279Z,1026.4819787
2018-06-03T00:04:50.753Z,1026.4819787
2018-06-03T00:05:03.177Z,1026.44811482
2018-06-03T00:05:15.596Z,1026.44811482
2018-06-03T00:05:28.023Z,1026.44811482
2018-06-03T00:05:40.448Z,1026.44811482
2018-06-03T00:05:52.882Z,1026.44811482
2018-06-03T00:06:05.311Z,1026.41425094
2018-06-03T00:06:17.752Z,1026.41425094
2018-06-03T00:06:30.190Z,1026.41425094
2018-06-03T00:06:42.609Z,1026.41425094
2018-06-03T00:06:55.061Z,1026.41425094
2018-06-03T00:07:07.504Z,1026.41425094
2018-06-03T00:07:19.916Z,1026.41425094
2018-06-03T00:07:32.390Z,1026.41425094
2018-06-03T00:07:44.803Z,1026.41425094
2018-06-03T00:07:57.236Z,1026.41425094
2018-06-03T00:08:09.636Z,1026.4819787
2018-06-03T00:08:22.062Z,1026.4819787
2018-06-03T00:08:34.484Z,1026.4819787
2018-06-03T00:08:46.931Z,1026.4819787
2018-06-03T00:08:59.363Z,1026.54970646
2018-06-03T00:09:11.783Z,1026.54970646
2018-06-03T00:09:24.226Z,1026.54970646
2018-06-03T00:09:36.661Z,1026.54970646
2018-06-03T00:09:49.547Z,1026.54970646
2018-06-03T00:10:02.083Z,1026.4819787
2018-06-03T00:10:14.517Z,1026.4819787
2018-06-03T00:10:26.934Z,1026.4819787
2018-06-03T00:10:39.344Z,1026.4819787
2018-06-03T00:10:56.847Z,1026.4819787
2018-06-03T00:11:09.268Z,1026.4819787
2018-06-03T00:11:21.679Z,1026.4819787
2018-06-03T00:11:34.093Z,1026.4819787
2018-06-03T00:11:46.510Z,1026.4819787
2018-06-03T00:11:58.932Z,1026.4819787
2018-06-03T00:12:11.356Z,1026.58357035
2018-06-03T00:12:23.775Z,1026.58357035
2018-06-03T00:12:36.207Z,1026.58357035
2018-06-03T00:12:48.615Z,1026.58357035
2018-06-03T00:13:01.048Z,1026.58357035
2018-06-03T00:13:13.471Z,1026.58357035
2018-06-03T00:13:25.942Z,1026.58357035
2018-06-03T00:13:38.359Z,1026.58357035
2018-06-03T00:13:50.781Z,1026.58357035
2018-06-03T00:14:03.190Z,1026.51584258
2018-06-03T00:14:15.664Z,1026.51584258
2018-06-03T00:14:28.083Z,1026.51584258
2018-06-03T00:14:40.513Z,1026.51584258
2018-06-03T00:14:52.966Z,1026.51584258
2018-06-03T00:15:05.408Z,1026.58357035
2018-06-03T00:15:17.811Z,1026.58357035
2018-06-03T00:15:30.223Z,1026.58357035
2018-06-03T00:15:42.621Z,1026.58357035
2018-06-03T00:15:55.107Z,1026.58357035
2018-06-03T00:16:07.581Z,1026.58357035
2018-06-03T00:16:20.000Z,1026.58357035
2018-06-03T00:16:32.404Z,1026.58357035
2018-06-03T00:16:44.820Z,1026.58357035
2018-06-03T00:16:57.253Z,1026.58357035
2018-06-03T00:17:09.679Z,1026.4819787
2018-06-03T00:17:22.098Z,1026.4819787
2018-06-03T00:17:34.517Z,1026.4819787
2018-06-03T00:17:46.951Z,1026.4819787
2018-06-03T00:17:59.396Z,1026.54970646
2018-06-03T00:18:12.047Z,1026.54970646
2018-06-03T00:18:24.444Z,1026.54970646
2018-06-03T00:18:36.884Z,1026.54970646
2018-06-03T00:18:49.314Z,1026.54970646
2018-06-03T00:19:01.743Z,1026.54970646
2018-06-03T00:19:14.223Z,1026.54970646
2018-06-03T00:19:26.650Z,1026.54970646
2018-06-03T00:19:39.076Z,1026.54970646
2018-06-03T00:19:51.513Z,1026.54970646
2018-06-03T00:20:03.934Z,1026.51584258
2018-06-03T00:20:16.352Z,1026.51584258
2018-06-03T00:20:28.774Z,1026.51584258
2018-06-03T00:20:41.197Z,1026.51584258
2018-06-03T00:20:53.629Z,1026.51584258
2018-06-03T00:21:06.062Z,1026.51584258
2018-06-03T00:21:18.491Z,1026.51584258
2018-06-03T00:21:30.910Z,1026.51584258
2018-06-03T00:21:43.329Z,1026.51584258
2018-06-03T00:21:55.749Z,1026.51584258
2018-06-03T00:22:08.174Z,1026.4819787
2018-06-03T00:22:20.603Z,1026.4819787
2018-06-03T00:22:33.048Z,1026.4819787
2018-06-03T00:22:45.458Z,1026.4819787
2018-06-03T00:22:57.876Z,1026.4819787
2018-06-03T00:23:10.322Z,1026.41425094
2018-06-03T00:23:22.726Z,1026.41425094
2018-06-03T00:23:35.155Z,1026.41425094
2018-06-03T00:23:47.593Z,1026.41425094
2018-06-03T00:24:00.041Z,1026.4819787
2018-06-03T00:24:12.473Z,1026.4819787
2018-06-03T00:24:24.906Z,1026.4819787
2018-06-03T00:24:37.365Z,1026.4819787
2018-06-03T00:24:49.823Z,1026.4819787
2018-06-03T00:25:02.253Z,1026.51584258
2018-06-03T00:25:14.670Z,1026.51584258
2018-06-03T00:25:27.099Z,1026.51584258
2018-06-03T00:25:39.519Z,1026.51584258
2018-06-03T00:25:51.937Z,1026.51584258
2018-06-03T00:26:04.789Z,1026.4819787
2018-06-03T00:26:17.821Z,1026.4819787
2018-06-03T00:26:30.462Z,1026.4819787
2018-06-03T00:26:42.894Z,1026.4819787
2018-06-03T00:26:55.330Z,1026.4819787
2018-06-03T00:27:07.764Z,1026.44811482
2018-06-03T00:27:20.173Z,1026.44811482
2018-06-03T00:27:32.603Z,1026.44811482
2018-06-03T00:27:45.018Z,1026.44811482
2018-06-03T00:27:57.416Z,1026.44811482
2018-06-03T00:28:09.858Z,1026.4819787
2018-06-03T00:28:22.413Z,1026.4819787
2018-06-03T00:28:34.841Z,1026.4819787
2018-06-03T00:28:47.274Z,1026.4819787
2018-06-03T00:28:59.706Z,1026.51584258
2018-06-03T00:29:12.137Z,1026.51584258
2018-06-03T00:29:24.609Z,1026.51584258
2018-06-03T00:29:37.029Z,1026.51584258
2018-06-03T00:29:49.459Z,1026.51584258
2018-06-03T00:30:02.017Z,1026.51584258
2018-06-03T00:30:14.417Z,1026.51584258
2018-06-03T00:30:26.844Z,1026.51584258
2018-06-03T00:30:39.274Z,1026.51584258
2018-06-03T00:30:51.693Z,1026.51584258
2018-06-03T00:31:04.107Z,1026.51584258
2018-06-03T00:31:16.511Z,1026.51584258
2018-06-03T00:31:28.916Z,1026.51584258
2018-06-03T00:31:41.319Z,1026.51584258
2018-06-03T00:31:53.739Z,1026.51584258
2018-06-03T00:32:06.166Z,1026.44811482
2018-06-03T00:32:18.570Z,1026.44811482
2018-06-03T00:32:30.981Z,1026.44811482
2018-06-03T00:32:43.403Z,1026.44811482
2018-06-03T00:32:55.823Z,1026.44811482
2018-06-03T00:33:08.254Z,1026.4819787
2018-06-03T00:33:20.674Z,1026.4819787
2018-06-03T00:33:33.095Z,1026.4819787
2018-06-03T00:33:45.524Z,1026.4819787
2018-06-03T00:33:57.940Z,1026.4819787
2018-06-03T00:34:10.351Z,1026.51584258
2018-06-03T00:34:22.777Z,1026.51584258
2018-06-03T00:34:35.210Z,1026.51584258
2018-06-03T00:34:47.613Z,1026.51584258
2018-06-03T00:35:00.129Z,1026.4819787
2018-06-03T00:35:12.653Z,1026.4819787
2018-06-03T00:35:25.070Z,1026.4819787
2018-06-03T00:35:37.487Z,1026.4819787
2018-06-03T00:35:49.918Z,1026.4819787
2018-06-03T00:36:02.326Z,1026.4819787
2018-06-03T00:36:14.719Z,1026.4819787
2018-06-03T00:36:27.146Z,1026.4819787
2018-06-03T00:36:39.555Z,1026.4819787
2018-06-03T00:36:51.986Z,1026.4819787
2018-06-03T00:37:04.400Z,1026.51584258
2018-06-03T00:37:16.804Z,1026.51584258
2018-06-03T00:37:29.214Z,1026.51584258
2018-06-03T00:37:41.613Z,1026.51584258
2018-06-03T00:37:54.036Z,1026.51584258
2018-06-03T00:38:06.468Z,1026.4819787
2018-06-03T00:38:18.893Z,1026.4819787
2018-06-03T00:38:31.341Z,1026.4819787
2018-06-03T00:38:43.771Z,1026.4819787
2018-06-03T00:38:56.175Z,1026.4819787
2018-06-03T00:39:08.594Z,1026.4819787
2018-06-03T00:39:21.042Z,1026.4819787
2018-06-03T00:39:33.482Z,1026.4819787
2018-06-03T00:39:45.909Z,1026.4819787
2018-06-03T00:39:58.371Z,1026.4819787
2018-06-03T00:40:10.786Z,1026.44811482
2018-06-03T00:40:23.446Z,1026.44811482
2018-06-03T00:40:36.399Z,1026.44811482
2018-06-03T00:40:48.813Z,1026.44811482
2018-06-03T00:41:01.222Z,1026.51584258
2018-06-03T00:41:13.813Z,1026.51584258
2018-06-03T00:41:26.229Z,1026.51584258
2018-06-03T00:41:38.629Z,1026.51584258
2018-06-03T00:41:51.051Z,1026.51584258
2018-06-03T00:42:03.491Z,1026.4819787
2018-06-03T00:42:15.926Z,1026.4819787
2018-06-03T00:42:28.337Z,1026.4819787
2018-06-03T00:42:40.756Z,1026.4819787
2018-06-03T00:42:53.175Z,1026.4819787
2018-06-03T00:43:05.583Z,1026.54970646
2018-06-03T00:43:18.002Z,1026.54970646
2018-06-03T00:43:30.431Z,1026.54970646
2018-06-03T00:43:42.864Z,1026.54970646
2018-06-03T00:43:55.345Z,1026.54970646
2018-06-03T00:44:07.789Z,1026.4819787
2018-06-03T00:44:20.401Z,1026.4819787
2018-06-03T00:44:32.904Z,1026.4819787
2018-06-03T00:44:45.332Z,1026.4819787
2018-06-03T00:44:57.748Z,1026.4819787
2018-06-03T00:45:10.172Z,1026.4819787
2018-06-03T00:45:22.620Z,1026.4819787
2018-06-03T00:45:35.025Z,1026.4819787
2018-06-03T00:45:47.470Z,1026.4819787
2018-06-03T00:45:59.908Z,1026.51584258
2018-06-03T00:46:12.336Z,1026.51584258
2018-06-03T00:46:24.733Z,1026.51584258
2018-06-03T00:46:37.178Z,1026.51584258
2018-06-03T00:46:49.588Z,1026.51584258
2018-06-03T00:47:01.997Z,1026.58357035
2018-06-03T00:47:14.436Z,1026.58357035
2018-06-03T00:47:26.880Z,1026.58357035
2018-06-03T00:47:39.295Z,1026.58357035
2018-06-03T00:47:51.709Z,1026.58357035
2018-06-03T00:48:04.147Z,1026.58357035
2018-06-03T00:48:16.580Z,1026.58357035
2018-06-03T00:48:29.148Z,1026.58357035
2018-06-03T00:48:41.582Z,1026.58357035
2018-06-03T00:48:53.993Z,1026.58357035
2018-06-03T00:49:06.437Z,1026.54970646
2018-06-03T00:49:18.862Z,1026.54970646
2018-06-03T00:49:31.269Z,1026.54970646
2018-06-03T00:49:43.686Z,1026.54970646
2018-06-03T00:49:56.129Z,1026.54970646
2018-06-03T00:50:08.589Z,1026.68516199
2018-06-03T00:50:20.988Z,1026.68516199
2018-06-03T00:50:33.397Z,1026.68516199
2018-06-03T00:50:45.828Z,1026.68516199
2018-06-03T00:50:58.233Z,1026.68516199
2018-06-03T00:51:10.691Z,1026.51584258
2018-06-03T00:51:23.119Z,1026.51584258
2018-06-03T00:51:35.574Z,1026.51584258
2018-06-03T00:51:48.050Z,1026.51584258
2018-06-03T00:52:00.468Z,1026.65129811
2018-06-03T00:52:12.888Z,1026.65129811
2018-06-03T00:52:25.308Z,1026.65129811
2018-06-03T00:52:38.046Z,1026.65129811
2018-06-03T00:52:50.530Z,1026.65129811
2018-06-03T00:53:03.026Z,1026.65129811
2018-06-03T00:53:15.447Z,1026.65129811
2018-06-03T00:53:27.858Z,1026.65129811
2018-06-03T00:53:40.279Z,1026.65129811
2018-06-03T00:53:52.695Z,1026.65129811
2018-06-03T00:54:05.307Z,1026.71902587
2018-06-03T00:54:17.737Z,1026.71902587
2018-06-03T00:54:30.173Z,1026.71902587
2018-06-03T00:54:42.598Z,1026.71902587
2018-06-03T00:54:55.009Z,1026.71902587
2018-06-03T00:55:07.417Z,1026.68516199
2018-06-03T00:55:19.833Z,1026.68516199
2018-06-03T00:55:32.234Z,1026.68516199
2018-06-03T00:55:44.651Z,1026.68516199
2018-06-03T00:55:57.061Z,1026.68516199
2018-06-03T00:56:09.480Z,1026.61743423
2018-06-03T00:56:21.903Z,1026.61743423
2018-06-03T00:56:34.325Z,1026.61743423
2018-06-03T00:56:46.738Z,1026.61743423
2018-06-03T00:56:59.163Z,1026.75288975
2018-06-03T00:57:11.579Z,1026.75288975
2018-06-03T00:57:23.987Z,1026.75288975
2018-06-03T00:57:36.437Z,1026.75288975
2018-06-03T00:57:48.891Z,1026.75288975
2018-06-03T00:58:01.356Z,1026.78675363
2018-06-03T00:58:13.807Z,1026.78675363
2018-06-03T00:58:26.215Z,1026.78675363
2018-06-03T00:58:38.675Z,1026.78675363
2018-06-03T00:58:51.103Z,1026.78675363
2018-06-03T00:59:03.518Z,1026.71902587
2018-06-03T00:59:15.941Z,1026.71902587
2018-06-03T00:59:28.401Z,1026.71902587
2018-06-03T00:59:40.840Z,1026.71902587
2018-06-03T00:59:53.262Z,1026.71902587
2018-06-03T01:00:05.708Z,1026.75288975
2018-06-03T01:00:18.142Z,1026.75288975
2018-06-03T01:00:30.572Z,1026.75288975
2018-06-03T01:00:43.049Z,1026.75288975
2018-06-03T01:00:55.490Z,1026.75288975
2018-06-03T01:01:07.936Z,1026.78675363
2018-06-03T01:01:20.412Z,1026.78675363
2018-06-03T01:01:32.846Z,1026.78675363
2018-06-03T01:01:45.268Z,1026.78675363
2018-06-03T01:01:57.690Z,1026.78675363
2018-06-03T01:02:10.157Z,1026.78675363
2018-06-03T01:02:22.586Z,1026.78675363
2018-06-03T01:02:35.002Z,1026.78675363
2018-06-03T01:02:47.476Z,1026.78675363
2018-06-03T01:02:59.883Z,1026.75288975
2018-06-03T01:03:12.310Z,1026.75288975
2018-06-03T01:03:24.927Z,1026.75288975
2018-06-03T01:03:37.352Z,1026.75288975
2018-06-03T01:03:49.781Z,1026.75288975
2018-06-03T01:04:02.225Z,1026.78675363
2018-06-03T01:04:14.645Z,1026.78675363
2018-06-03T01:04:27.121Z,1026.78675363
2018-06-03T01:04:39.602Z,1026.78675363
2018-06-03T01:04:52.077Z,1026.78675363
2018-06-03T01:05:04.506Z,1026.82061752
2018-06-03T01:05:16.960Z,1026.82061752
2018-06-03T01:05:29.385Z,1026.82061752
2018-06-03T01:05:41.820Z,1026.82061752
2018-06-03T01:05:54.253Z,1026.82061752
2018-06-03T01:06:06.664Z,1026.82061752
2018-06-03T01:06:19.196Z,1026.82061752
2018-06-03T01:06:31.619Z,1026.82061752
2018-06-03T01:06:44.044Z,1026.82061752
2018-06-03T01:06:56.465Z,1026.82061752
2018-06-03T01:07:08.893Z,1026.88834528
2018-06-03T01:07:21.303Z,1026.88834528
2018-06-03T01:07:33.730Z,1026.88834528
2018-06-03T01:07:46.137Z,1026.88834528
2018-06-03T01:07:58.562Z,1026.88834528
2018-06-03T01:08:11.011Z,1026.75288975
2018-06-03T01:08:23.423Z,1026.75288975
2018-06-03T01:08:35.914Z,1026.75288975
2018-06-03T01:08:48.340Z,1026.75288975
2018-06-03T01:09:00.778Z,1026.78675363
2018-06-03T01:09:13.239Z,1026.78675363
2018-06-03T01:09:25.715Z,1026.78675363
2018-06-03T01:09:38.146Z,1026.78675363
2018-06-03T01:09:50.580Z,1026.78675363
2018-06-03T01:10:03.006Z,1026.75288975
2018-06-03T01:10:15.454Z,1026.75288975
2018-06-03T01:10:27.892Z,1026.75288975
2018-06-03T01:10:40.296Z,1026.75288975
2018-06-03T01:10:53.071Z,1026.75288975
2018-06-03T01:11:05.477Z,1026.75288975
2018-06-03T01:11:17.895Z,1026.75288975
2018-06-03T01:11:30.334Z,1026.75288975
2018-06-03T01:11:42.812Z,1026.75288975
2018-06-03T01:11:55.249Z,1026.75288975
2018-06-03T01:12:07.701Z,1026.82061752
2018-06-03T01:12:20.122Z,1026.82061752
2018-06-03T01:12:32.524Z,1026.82061752
2018-06-03T01:12:44.954Z,1026.82061752
2018-06-03T01:12:57.367Z,1026.82061752
2018-06-03T01:13:09.805Z,1026.8544814
2018-06-03T01:13:22.228Z,1026.8544814
2018-06-03T01:13:34.658Z,1026.8544814
2018-06-03T01:13:47.085Z,1026.8544814
2018-06-03T01:13:59.501Z,1026.78675363
2018-06-03T01:14:11.938Z,1026.78675363
2018-06-03T01:14:24.417Z,1026.78675363
2018-06-03T01:14:36.909Z,1026.78675363
2018-06-03T01:14:49.341Z,1026.78675363
2018-06-03T01:15:01.765Z,1026.78675363
2018-06-03T01:15:14.167Z,1026.78675363
2018-06-03T01:15:26.611Z,1026.78675363
2018-06-03T01:15:39.025Z,1026.78675363
2018-06-03T01:15:51.489Z,1026.78675363
2018-06-03T01:16:03.919Z,1026.82061752
2018-06-03T01:16:16.341Z,1026.82061752
2018-06-03T01:16:28.748Z,1026.82061752
2018-06-03T01:16:41.194Z,1026.82061752
2018-06-03T01:16:53.612Z,1026.82061752
2018-06-03T01:17:06.073Z,1026.82061752
2018-06-03T01:17:18.508Z,1026.82061752
2018-06-03T01:17:30.925Z,1026.82061752
2018-06-03T01:17:43.331Z,1026.82061752
2018-06-03T01:17:55.760Z,1026.82061752
2018-06-03T01:18:08.315Z,1026.8544814
2018-06-03T01:18:20.728Z,1026.8544814
2018-06-03T01:18:33.163Z,1026.8544814
2018-06-03T01:18:45.573Z,1026.8544814
2018-06-03T01:18:58.057Z,1026.8544814
2018-06-03T01:19:10.464Z,1026.8544814
2018-06-03T01:19:22.886Z,1026.8544814
2018-06-03T01:19:35.314Z,1026.8544814
2018-06-03T01:19:47.705Z,1026.8544814
2018-06-03T01:20:00.109Z,1026.78675363
2018-06-03T01:20:12.512Z,1026.78675363
2018-06-03T01:20:24.915Z,1026.78675363
2018-06-03T01:20:37.332Z,1026.78675363
2018-06-03T01:20:49.753Z,1026.78675363
2018-06-03T01:21:02.172Z,1026.78675363
2018-06-03T01:21:14.576Z,1026.78675363
2018-06-03T01:21:27.001Z,1026.78675363
2018-06-03T01:21:39.411Z,1026.78675363
2018-06-03T01:21:51.835Z,1026.78675363
2018-06-03T01:22:04.340Z,1026.8544814
2018-06-03T01:22:16.749Z,1026.8544814
2018-06-03T01:22:29.148Z,1026.8544814
2018-06-03T01:22:41.576Z,1026.8544814
2018-06-03T01:22:53.972Z,1026.8544814
2018-06-03T01:23:06.473Z,1026.78675363
2018-06-03T01:23:18.952Z,1026.78675363
2018-06-03T01:23:31.370Z,1026.78675363
2018-06-03T01:23:43.815Z,1026.78675363
2018-06-03T01:23:56.245Z,1026.78675363
2018-06-03T01:24:08.665Z,1026.75288975
2018-06-03T01:24:21.088Z,1026.75288975
2018-06-03T01:24:33.499Z,1026.75288975
2018-06-03T01:24:45.917Z,1026.75288975
2018-06-03T01:24:58.333Z,1026.75288975
2018-06-03T01:25:10.754Z,1026.82061752
2018-06-03T01:25:23.180Z,1026.82061752
2018-06-03T01:25:35.595Z,1026.82061752
2018-06-03T01:25:48.079Z,1026.82061752
2018-06-03T01:26:00.503Z,1026.88834528
2018-06-03T01:26:12.943Z,1026.88834528
2018-06-03T01:26:25.406Z,1026.88834528
2018-06-03T01:26:37.854Z,1026.88834528
2018-06-03T01:26:50.268Z,1026.88834528
2018-06-03T01:27:02.676Z,1026.78675363
2018-06-03T01:27:15.093Z,1026.78675363
2018-06-03T01:27:27.525Z,1026.78675363
2018-06-03T01:27:39.971Z,1026.78675363
2018-06-03T01:27:52.381Z,1026.78675363
2018-06-03T01:28:04.796Z,1026.78675363
2018-06-03T01:28:17.214Z,1026.78675363
2018-06-03T01:28:29.809Z,1026.78675363
2018-06-03T01:28:42.237Z,1026.78675363
2018-06-03T01:28:54.647Z,1026.78675363
2018-06-03T01:29:07.066Z,1026.75288975
2018-06-03T01:29:19.523Z,1026.75288975
2018-06-03T01:29:32.042Z,1026.75288975
2018-06-03T01:29:44.509Z,1026.75288975
2018-06-03T01:29:56.924Z,1026.75288975
2018-06-03T01:30:09.489Z,1026.8544814
2018-06-03T01:30:21.904Z,1026.8544814
2018-06-03T01:30:34.337Z,1026.8544814
2018-06-03T01:30:46.734Z,1026.8544814
2018-06-03T01:30:59.147Z,1026.8544814
2018-06-03T01:31:11.567Z,1026.78675363
2018-06-03T01:31:23.976Z,1026.78675363
2018-06-03T01:31:36.396Z,1026.78675363
2018-06-03T01:31:48.820Z,1026.78675363
2018-06-03T01:32:01.236Z,1026.78675363
2018-06-03T01:32:13.671Z,1026.78675363
2018-06-03T01:32:26.084Z,1026.78675363
2018-06-03T01:32:38.507Z,1026.78675363
2018-06-03T01:32:50.931Z,1026.78675363
2018-06-03T01:33:03.395Z,1026.82061752
2018-06-03T01:33:15.808Z,1026.82061752
2018-06-03T01:33:28.242Z,1026.82061752
2018-06-03T01:33:40.667Z,1026.82061752
2018-06-03T01:33:53.099Z,1026.82061752
2018-06-03T01:34:05.524Z,1026.78675363
2018-06-03T01:34:17.975Z,1026.78675363
2018-06-03T01:34:30.398Z,1026.78675363
2018-06-03T01:34:42.815Z,1026.78675363
2018-06-03T01:34:55.243Z,1026.78675363
2018-06-03T01:35:07.761Z,1026.68516199
2018-06-03T01:35:20.185Z,1026.68516199
2018-06-03T01:35:32.600Z,1026.68516199
2018-06-03T01:35:45.012Z,1026.68516199
2018-06-03T01:35:57.420Z,1026.68516199
2018-06-03T01:36:09.830Z,1026.75288975
2018-06-03T01:36:22.399Z,1026.75288975
2018-06-03T01:36:34.818Z,1026.75288975
2018-06-03T01:36:47.241Z,1026.75288975
2018-06-03T01:36:59.656Z,1026.68516199
2018-06-03T01:37:12.069Z,1026.68516199
2018-06-03T01:37:24.484Z,1026.68516199
2018-06-03T01:37:36.917Z,1026.68516199
2018-06-03T01:37:49.348Z,1026.68516199
2018-06-03T01:38:01.781Z,1026.78675363
2018-06-03T01:38:14.219Z,1026.78675363
2018-06-03T01:38:26.631Z,1026.78675363
2018-06-03T01:38:39.063Z,1026.78675363
2018-06-03T01:38:51.489Z,1026.78675363
2018-06-03T01:39:03.909Z,1026.78675363
2018-06-03T01:39:16.320Z,1026.78675363
2018-06-03T01:39:28.793Z,1026.78675363
2018-06-03T01:39:41.236Z,1026.78675363
2018-06-03T01:39:53.722Z,1026.78675363
2018-06-03T01:40:06.162Z,1026.75288975
2018-06-03T01:40:18.564Z,1026.75288975
2018-06-03T01:40:30.967Z,1026.75288975
2018-06-03T01:40:43.371Z,1026.75288975
2018-06-03T01:40:55.778Z,1026.75288975
2018-06-03T01:41:08.393Z,1026.82061752
2018-06-03T01:41:20.827Z,1026.82061752
2018-06-03T01:41:33.298Z,1026.82061752
2018-06-03T01:41:45.728Z,1026.82061752
2018-06-03T01:41:58.143Z,1026.82061752
2018-06-03T01:42:10.580Z,1026.78675363
2018-06-03T01:42:23.047Z,1026.78675363
2018-06-03T01:42:35.463Z,1026.78675363
2018-06-03T01:42:47.872Z,1026.78675363
2018-06-03T01:43:00.281Z,1026.82061752
2018-06-03T01:43:12.699Z,1026.82061752
2018-06-03T01:43:25.124Z,1026.82061752
2018-06-03T01:43:37.545Z,1026.82061752
2018-06-03T01:43:49.985Z,1026.82061752
2018-06-03T01:44:02.401Z,1026.78675363
2018-06-03T01:44:14.848Z,1026.78675363
2018-06-03T01:44:27.294Z,1026.78675363
2018-06-03T01:44:39.717Z,1026.78675363
2018-06-03T01:44:52.202Z,1026.78675363
2018-06-03T01:45:04.626Z,1026.8544814
2018-06-03T01:45:17.112Z,1026.8544814
2018-06-03T01:45:29.522Z,1026.8544814
2018-06-03T01:45:41.946Z,1026.8544814
2018-06-03T01:45:54.352Z,1026.8544814
2018-06-03T01:46:06.843Z,1026.75288975
2018-06-03T01:46:19.263Z,1026.75288975
2018-06-03T01:46:31.676Z,1026.75288975
2018-06-03T01:46:44.142Z,1026.75288975
2018-06-03T01:46:56.563Z,1026.75288975
2018-06-03T01:47:09.009Z,1026.78675363
2018-06-03T01:47:21.436Z,1026.78675363
2018-06-03T01:47:33.897Z,1026.78675363
2018-06-03T01:47:46.365Z,1026.78675363
2018-06-03T01:47:58.787Z,1026.78675363
2018-06-03T01:48:11.201Z,1026.71902587
2018-06-03T01:48:23.620Z,1026.71902587
2018-06-03T01:48:36.435Z,1026.71902587
2018-06-03T01:48:48.843Z,1026.71902587
2018-06-03T01:49:01.253Z,1026.75288975
2018-06-03T01:49:13.668Z,1026.75288975
2018-06-03T01:49:26.100Z,1026.75288975
2018-06-03T01:49:38.525Z,1026.75288975
2018-06-03T01:49:50.959Z,1026.75288975
2018-06-03T01:50:03.386Z,1026.8544814
2018-06-03T01:50:15.809Z,1026.8544814
2018-06-03T01:50:28.232Z,1026.8544814
2018-06-03T01:50:40.654Z,1026.8544814
2018-06-03T01:50:53.062Z,1026.8544814
2018-06-03T01:51:05.504Z,1026.71902587
2018-06-03T01:51:18.004Z,1026.71902587
2018-06-03T01:51:30.433Z,1026.71902587
2018-06-03T01:51:42.872Z,1026.71902587
2018-06-03T01:51:55.324Z,1026.71902587
2018-06-03T01:52:07.755Z,1026.78675363
2018-06-03T01:52:20.195Z,1026.78675363
2018-06-03T01:52:32.617Z,1026.78675363
2018-06-03T01:52:45.120Z,1026.78675363
2018-06-03T01:52:57.559Z,1026.78675363
2018-06-03T01:53:09.974Z,1026.78675363
2018-06-03T01:53:22.393Z,1026.78675363
2018-06-03T01:53:34.819Z,1026.78675363
2018-06-03T01:53:47.296Z,1026.78675363
2018-06-03T01:53:59.761Z,1026.65129811
2018-06-03T01:54:12.198Z,1026.65129811
2018-06-03T01:54:24.632Z,1026.65129811
2018-06-03T01:54:37.061Z,1026.65129811
2018-06-03T01:54:49.492Z,1026.65129811
2018-06-03T01:55:01.912Z,1026.78675363
2018-06-03T01:55:14.331Z,1026.78675363
2018-06-03T01:55:26.777Z,1026.78675363
2018-06-03T01:55:39.193Z,1026.78675363
2018-06-03T01:55:51.605Z,1026.78675363
2018-06-03T01:56:04.057Z,1026.75288975
2018-06-03T01:56:16.485Z,1026.75288975
2018-06-03T01:56:28.884Z,1026.75288975
2018-06-03T01:56:41.324Z,1026.75288975
2018-06-03T01:56:53.749Z,1026.75288975
2018-06-03T01:57:06.170Z,1026.75288975
2018-06-03T01:57:18.593Z,1026.75288975
2018-06-03T01:57:31.063Z,1026.75288975
2018-06-03T01:57:43.492Z,1026.75288975
2018-06-03T01:57:55.953Z,1026.75288975
2018-06-03T01:58:08.390Z,1026.65129811
2018-06-03T01:58:20.800Z,1026.65129811
2018-06-03T01:58:33.214Z,1026.65129811
2018-06-03T01:58:45.624Z,1026.65129811
2018-06-03T01:58:58.112Z,1026.65129811
2018-06-03T01:59:10.540Z,1026.68516199
2018-06-03T01:59:22.962Z,1026.68516199
2018-06-03T01:59:35.460Z,1026.68516199
2018-06-03T01:59:47.882Z,1026.68516199
2018-06-03T02:00:00.296Z,1026.68516199
2018-06-03T02:00:12.760Z,1026.71902587
2018-06-03T02:00:25.212Z,1026.71902587
2018-06-03T02:00:37.683Z,1026.71902587
2018-06-03T02:00:50.126Z,1026.71902587
2018-06-03T02:01:02.617Z,1026.71902587
2018-06-03T02:01:15.071Z,1026.71902587
2018-06-03T02:01:27.505Z,1026.71902587
2018-06-03T02:01:39.949Z,1026.71902587
2018-06-03T02:01:52.376Z,1026.71902587
2018-06-03T02:02:04.824Z,1026.75288975
2018-06-03T02:02:17.246Z,1026.75288975
2018-06-03T02:02:29.701Z,1026.75288975
2018-06-03T02:02:42.122Z,1026.75288975
2018-06-03T02:02:54.551Z,1026.75288975
2018-06-03T02:03:06.987Z,1026.75288975
2018-06-03T02:03:19.443Z,1026.75288975
2018-06-03T02:03:31.855Z,1026.75288975
2018-06-03T02:03:44.262Z,1026.75288975
2018-06-03T02:03:56.871Z,1026.75288975
2018-06-03T02:04:09.293Z,1026.65129811
2018-06-03T02:04:21.686Z,1026.65129811
2018-06-03T02:04:34.098Z,1026.65129811
2018-06-03T02:04:46.529Z,1026.65129811
2018-06-03T02:04:58.967Z,1026.65129811
2018-06-03T02:05:11.394Z,1026.75288975
2018-06-03T02:05:23.826Z,1026.75288975
2018-06-03T02:05:36.254Z,1026.75288975
2018-06-03T02:05:48.645Z,1026.75288975
2018-06-03T02:06:01.154Z,1026.68516199
2018-06-03T02:06:13.564Z,1026.68516199
2018-06-03T02:06:25.977Z,1026.68516199
2018-06-03T02:06:38.409Z,1026.68516199
2018-06-03T02:06:50.814Z,1026.68516199
2018-06-03T02:07:03.214Z,1026.71902587
2018-06-03T02:07:15.854Z,1026.71902587
2018-06-03T02:07:28.293Z,1026.71902587
2018-06-03T02:07:40.713Z,1026.71902587
2018-06-03T02:07:53.137Z,1026.71902587